CheckWX is a tool to help pilots better visualize weather data.  It is not intended as a substitute for an official pre-flight weather briefing.

06:55:59 UTC

KHZY METAR
Northeast Ohio Regional Airport
Ashtabula, Ohio, USA
Current

1 hour ago

KHZY 290553Z AUTO 18004KT 10SM CLR 19/18 A2993 RMK AO2 SLP130 T01890183 10244 20183 58000
Observed
May-29 @ 05:53 UTC
Wind
  • 180° at 4 KTS
Visibility
Flight Rules
VFR
Cloud Levels
  • Clear skies
Temperature
19°C / 66°F
Dewpoint
18°C / 64°F
Humidity
94%
Altimeter
29.93" Hg
Pressure
1013.52 hPa
Previous

2 hours ago

KHZY 290453Z AUTO 17004KT 10SM CLR 19/18 A2993 RMK AO2 SLP131 T01890178 402500183
Observed
May-29 @ 04:53 UTC
Wind
  • 170° at 4 KTS
Visibility
Flight Rules
VFR
Cloud Levels
  • Clear skies
Dewpoint
18°C / 64°F
Humidity
94%
Altimeter
29.93" Hg
Pressure
1013.52 hPa
Previous

3 hours ago

KHZY 290353Z AUTO 00000KT 8SM CLR 18/18 A2993 RMK AO2 SLP132 T01830178
Observed
May-29 @ 03:53 UTC
Visibility
Flight Rules
VFR
Cloud Levels
  • Clear skies
Temperature
18°C / 64°F
Dewpoint
18°C / 64°F
Humidity
100%
Altimeter
29.93" Hg
Pressure
1013.52 hPa